Time;durP1;ratioP1;P1;durP2;ratioP2;P2;SDS_P1;SDS_P2;PMS_P1;PMS_P2;Temp;Humidity;BMP_temperature;BMP_pressure;BME280_temperature;BME280_humidity;BME280_pressure;Samples;Min_cycle;Max_cycle;Signal;HPM_P1;HPM_P2
2021/12/29 00:02:22;;;;;;;43.77;27.73;;;5.70;99.90;;;;;;648256;220;27248;-77
2021/12/29 00:04:49;;;;;;;42.30;26.57;;;5.60;99.90;;;;;;648567;221;26522;-77
2021/12/29 00:07:17;;;;;;;42.53;26.00;;;5.60;99.90;;;;;;648165;221;27274;-77
2021/12/29 00:09:44;;;;;;;41.53;26.07;;;5.70;99.90;;;;;;648012;222;26603;-77
2021/12/29 00:12:11;;;;;;;39.13;26.10;;;5.80;99.90;;;;;;647864;221;26827;-77
2021/12/29 00:14:38;;;;;;;41.83;26.90;;;5.50;99.90;;;;;;647801;217;26514;-77
2021/12/29 00:17:05;;;;;;;42.23;27.10;;;5.40;99.90;;;;;;647703;222;27431;-77
2021/12/29 00:19:32;;;;;;;46.07;27.60;;;5.20;99.90;;;;;;647762;222;26597;-77
2021/12/29 00:22:00;;;;;;;37.90;25.80;;;5.30;99.90;;;;;;647506;222;26821;-77
2021/12/29 00:24:28;;;;;;;45.73;26.83;;;5.60;99.90;;;;;;647517;222;26571;-77
2021/12/29 00:26:55;;;;;;;43.10;26.77;;;5.60;99.90;;;;;;647564;222;26570;-77
2021/12/29 00:29:22;;;;;;;40.23;26.13;;;5.50;99.90;;;;;;647409;222;26821;-77
2021/12/29 00:31:49;;;;;;;41.67;27.03;;;5.60;99.90;;;;;;647514;222;26575;-77
2021/12/29 00:34:16;;;;;;;45.63;26.20;;;5.40;99.90;;;;;;647610;222;26754;-77
2021/12/29 00:36:44;;;;;;;38.20;25.57;;;5.40;99.90;;;;;;647520;222;26581;-77
2021/12/29 00:39:11;;;;;;;42.63;26.10;;;5.60;99.90;;;;;;647153;222;26592;-77
2021/12/29 00:41:39;;;;;;;42.53;26.57;;;5.90;99.90;;;;;;647222;222;26602;-77
2021/12/29 00:44:08;;;;;;;43.03;25.97;;;6.00;99.90;;;;;;647111;222;26571;-77
2021/12/29 00:46:36;;;;;;;43.27;26.47;;;5.90;99.90;;;;;;647020;222;26576;-77
2021/12/29 00:49:04;;;;;;;41.50;27.20;;;5.90;99.90;;;;;;647115;222;26590;-77
2021/12/29 00:51:31;;;;;;;43.47;26.57;;;5.70;99.90;;;;;;647159;222;26821;-77
2021/12/29 00:53:58;;;;;;;48.63;28.10;;;5.80;99.90;;;;;;647168;222;26615;-77
2021/12/29 00:56:25;;;;;;;43.63;27.10;;;5.80;99.90;;;;;;647126;222;26797;-77
2021/12/29 00:58:52;;;;;;;42.40;26.70;;;5.80;99.90;;;;;;647003;222;26587;-77
2021/12/29 01:01:20;;;;;;;46.03;27.20;;;5.80;99.90;;;;;;647164;222;26801;-77
2021/12/29 01:03:48;;;;;;;41.80;27.23;;;5.80;99.90;;;;;;647219;222;26787;-78
2021/12/29 01:06:15;;;;;;;42.13;26.67;;;6.00;99.90;;;;;;647201;222;26600;-77
2021/12/29 01:08:42;;;;;;;41.67;27.30;;;6.10;99.90;;;;;;647135;222;26847;-78
2021/12/29 01:11:09;;;;;;;41.60;26.03;;;6.10;99.90;;;;;;647158;222;26579;-77
2021/12/29 01:13:44;;;;;;;42.87;25.70;;;6.10;99.90;;;;;;648026;220;26835;-78
2021/12/29 01:16:16;;;;;;;41.63;25.97;;;6.20;99.90;;;;;;648054;221;26499;-77
2021/12/29 01:18:36;;;;;;;44.80;26.90;;;6.20;99.90;;;;;;647578;221;26855;-78
2021/12/29 01:21:03;;;;;;;41.27;27.37;;;6.20;99.90;;;;;;648073;221;26571;-77
2021/12/29 01:23:30;;;;;;;41.03;26.47;;;6.20;99.90;;;;;;647822;221;26759;-77
2021/12/29 01:25:57;;;;;;;40.70;27.00;;;6.20;99.90;;;;;;647788;222;26512;-77
2021/12/29 01:28:24;;;;;;;38.30;25.77;;;6.20;99.90;;;;;;647758;222;26780;-77
2021/12/29 01:30:52;;;;;;;40.83;25.77;;;6.30;99.90;;;;;;647650;222;26605;-77
2021/12/29 01:33:19;;;;;;;41.63;26.17;;;6.40;99.90;;;;;;647474;222;27275;-77
2021/12/29 01:35:47;;;;;;;41.93;26.53;;;6.40;99.90;;;;;;647447;222;26865;-77
2021/12/29 01:38:15;;;;;;;42.33;27.13;;;6.30;99.90;;;;;;647417;222;26582;-77
2021/12/29 01:40:48;;;;;;;40.37;26.20;;;6.30;99.90;;;;;;647378;222;26595;-77
2021/12/29 01:43:11;;;;;;;40.50;26.63;;;6.40;99.90;;;;;;646927;222;26599;-77
2021/12/29 01:45:39;;;;;;;42.33;26.80;;;6.30;99.90;;;;;;647412;222;26628;-77
2021/12/29 01:48:07;;;;;;;39.20;26.13;;;6.30;99.90;;;;;;647438;217;26560;-78
2021/12/29 01:50:34;;;;;;;41.77;26.43;;;6.30;99.90;;;;;;647207;217;26594;-78
2021/12/29 01:53:07;;;;;;;39.40;25.17;;;6.30;99.90;;;;;;647243;222;26576;-77
2021/12/29 01:55:30;;;;;;;38.07;25.17;;;6.40;99.90;;;;;;646637;222;26849;-77
2021/12/29 01:57:55;;;;;;;37.43;25.17;;;6.40;99.90;;;;;;647502;222;26801;-78
2021/12/29 02:00:22;;;;;;;39.37;26.27;;;6.50;99.90;;;;;;647600;222;26786;-78
2021/12/29 02:02:50;;;;;;;37.40;23.90;;;6.50;99.90;;;;;;647594;222;26541;-78
2021/12/29 02:05:17;;;;;;;46.23;31.57;;;6.50;99.90;;;;;;647682;222;26756;-77
2021/12/29 02:07:45;;;;;;;50.33;31.60;;;6.40;99.90;;;;;;647738;222;26481;-77
2021/12/29 02:10:11;;;;;;;45.30;31.37;;;6.30;99.90;;;;;;647770;222;26794;-78
2021/12/29 02:12:38;;;;;;;41.83;28.60;;;6.20;99.90;;;;;;647714;222;26524;-77
2021/12/29 02:15:06;;;;;;;41.70;30.30;;;6.20;99.90;;;;;;647672;222;26734;-78
2021/12/29 02:17:33;;;;;;;45.83;29.07;;;6.40;99.90;;;;;;647237;222;26546;-77
2021/12/29 02:20:01;;;;;;;51.77;32.60;;;6.50;99.90;;;;;;647240;222;26839;-78
2021/12/29 02:22:38;;;;;;;41.03;27.43;;;6.60;99.90;;;;;;647274;222;26558;-77
2021/12/29 02:25:20;;;;;;;39.90;27.03;;;6.60;99.90;;;;;;647287;220;26901;-78
2021/12/29 02:27:24;;;;;;;40.13;26.80;;;6.50;99.90;;;;;;647124;221;26546;-78
2021/12/29 02:29:51;;;;;;;38.60;25.97;;;6.60;99.90;;;;;;648313;221;26531;-77
2021/12/29 02:32:18;;;;;;;36.97;26.07;;;6.60;99.90;;;;;;648236;221;26588;-78
2021/12/29 02:34:46;;;;;;;33.63;23.33;;;6.70;99.90;;;;;;647871;222;26796;-77
2021/12/29 02:37:19;;;;;;;34.80;23.43;;;6.60;99.90;;;;;;647873;222;26752;-78
2021/12/29 02:39:40;;;;;;;32.63;22.73;;;6.40;99.90;;;;;;637641;222;26550;-78
2021/12/29 02:42:09;;;;;;;29.23;22.83;;;6.40;99.90;;;;;;647930;222;26748;-77
2021/12/29 02:44:40;;;;;;;38.47;25.33;;;6.40;99.90;;;;;;647357;217;26563;-79
2021/12/29 02:47:04;;;;;;;30.70;22.57;;;6.50;99.90;;;;;;647232;222;26622;-78
2021/12/29 02:49:32;;;;;;;30.33;21.03;;;6.30;99.90;;;;;;647487;222;26596;-77
2021/12/29 02:52:00;;;;;;;35.67;22.63;;;6.20;99.90;;;;;;647635;222;26575;-78
2021/12/29 02:54:27;;;;;;;29.77;22.33;;;6.20;99.90;;;;;;647590;222;26573;-77
2021/12/29 02:56:55;;;;;;;31.90;21.43;;;6.10;99.90;;;;;;647566;222;26541;-77
2021/12/29 02:59:22;;;;;;;28.77;21.10;;;6.40;99.90;;;;;;647533;222;26587;-77
2021/12/29 03:01:51;;;;;;;26.83;20.03;;;6.60;99.90;;;;;;647341;222;26564;-78
2021/12/29 03:04:18;;;;;;;29.30;22.40;;;6.60;99.90;;;;;;647598;222;26553;-78
2021/12/29 03:06:46;;;;;;;25.30;19.90;;;6.70;99.90;;;;;;647703;222;26568;-78
2021/12/29 03:09:13;;;;;;;27.17;20.20;;;6.70;99.90;;;;;;647711;222;26562;-78
2021/12/29 03:11:40;;;;;;;29.87;20.40;;;6.80;99.90;;;;;;647749;222;26537;-78
2021/12/29 03:14:08;;;;;;;29.40;19.60;;;6.70;99.90;;;;;;647313;222;26810;-78
2021/12/29 03:16:36;;;;;;;25.50;19.57;;;6.80;99.90;;;;;;647273;222;26563;-78
2021/12/29 03:19:03;;;;;;;28.13;19.30;;;6.80;99.90;;;;;;647184;222;26612;-78
2021/12/29 03:21:30;;;;;;;26.07;19.27;;;6.90;99.90;;;;;;647209;222;26584;-78
2021/12/29 03:23:57;;;;;;;27.20;19.03;;;6.90;99.90;;;;;;647224;222;26808;-77
2021/12/29 03:26:24;;;;;;;27.13;19.33;;;6.90;99.90;;;;;;647236;222;26812;-78
2021/12/29 03:28:52;;;;;;;27.57;19.63;;;6.90;99.90;;;;;;647266;222;26822;-77
2021/12/29 03:31:21;;;;;;;24.23;17.33;;;7.00;99.90;;;;;;647425;222;26871;-77
2021/12/29 03:33:46;;;;;;;29.83;19.57;;;7.10;99.90;;;;;;647356;222;26591;-77
2021/12/29 03:36:13;;;;;;;25.83;17.83;;;7.30;99.90;;;;;;647736;220;26828;-78
2021/12/29 03:38:40;;;;;;;24.53;18.70;;;7.40;99.90;;;;;;648947;221;26575;-78
2021/12/29 03:41:08;;;;;;;23.87;18.20;;;7.50;99.90;;;;;;648435;221;26730;-78
2021/12/29 03:43:35;;;;;;;23.63;16.40;;;7.50;99.90;;;;;;648163;217;26594;-78
2021/12/29 03:46:02;;;;;;;25.13;18.90;;;7.40;99.90;;;;;;648130;217;26876;-78
2021/12/29 03:48:29;;;;;;;24.43;19.03;;;7.40;99.90;;;;;;647844;222;26501;-77
2021/12/29 03:50:56;;;;;;;25.03;18.23;;;7.40;99.90;;;;;;647921;217;26810;-77
2021/12/29 03:53:24;;;;;;;25.17;17.70;;;7.40;99.90;;;;;;647854;222;26518;-78
2021/12/29 03:55:52;;;;;;;22.80;16.83;;;7.20;99.90;;;;;;647471;222;26582;-78
2021/12/29 03:58:20;;;;;;;25.20;17.73;;;7.00;99.90;;;;;;647334;222;26575;-78
2021/12/29 04:00:48;;;;;;;25.87;18.63;;;7.00;99.90;;;;;;647414;222;26573;-78
2021/12/29 04:03:15;;;;;;;22.90;17.67;;;6.90;99.90;;;;;;647421;222;26551;-76
2021/12/29 04:05:43;;;;;;;23.60;18.47;;;7.00;99.90;;;;;;647449;222;26572;-78
2021/12/29 04:08:10;;;;;;;26.37;18.67;;;7.10;99.90;;;;;;647493;222;27104;-81
2021/12/29 04:10:37;;;;;;;26.10;17.10;;;7.10;99.90;;;;;;649365;221;26606;-81
2021/12/29 04:13:04;;;;;;;23.20;17.50;;;7.10;99.90;;;;;;650497;221;26514;-81
2021/12/29 04:15:32;;;;;;;26.07;16.23;;;7.20;99.90;;;;;;650022;221;26779;-81
2021/12/29 04:17:59;;;;;;;24.87;15.60;;;7.40;99.90;;;;;;650008;221;26777;-80
2021/12/29 04:22:59;;;;;;;20.90;15.10;;;7.60;99.90;;;;;;649859;221;26571;-81
2021/12/29 04:25:26;;;;;;;19.17;14.27;;;7.70;99.90;;;;;;649826;221;26844;-81
2021/12/29 04:27:53;;;;;;;18.67;14.53;;;7.70;99.90;;;;;;649816;221;26534;-81
2021/12/29 04:30:20;;;;;;;36.93;22.40;;;7.70;99.90;;;;;;649828;221;26778;-81
2021/12/29 04:32:48;;;;;;;25.57;18.73;;;7.70;99.90;;;;;;649998;221;26795;-81
2021/12/29 04:35:15;;;;;;;21.33;16.50;;;7.80;99.90;;;;;;649902;221;26503;-81
2021/12/29 04:37:43;;;;;;;21.63;15.30;;;7.90;99.90;;;;;;649956;221;26876;-82
2021/12/29 04:40:10;;;;;;;19.33;14.03;;;7.90;99.90;;;;;;649886;221;26788;-81
2021/12/29 04:42:37;;;;;;;22.37;14.67;;;7.70;99.90;;;;;;650064;221;26510;-81
2021/12/29 04:45:05;;;;;;;18.60;14.13;;;7.60;99.90;;;;;;650068;221;26871;-81
2021/12/29 04:47:35;;;;;;;20.87;14.07;;;7.50;99.90;;;;;;650128;219;26546;-81
2021/12/29 04:50:01;;;;;;;20.13;14.27;;;7.50;99.90;;;;;;651508;220;26595;-82
2021/12/29 04:52:26;;;;;;;20.13;13.87;;;7.40;99.90;;;;;;651154;221;26917;-81
2021/12/29 04:54:53;;;;;;;19.93;13.73;;;7.30;99.90;;;;;;650888;221;26534;-81
2021/12/29 04:57:21;;;;;;;18.43;13.53;;;7.40;99.90;;;;;;650716;221;27209;-81
2021/12/29 04:59:48;;;;;;;20.40;14.03;;;7.40;99.90;;;;;;650526;221;26588;-81
2021/12/29 05:02:15;;;;;;;20.47;13.83;;;7.30;99.90;;;;;;650601;221;26869;-81
2021/12/29 05:04:47;;;;;;;18.47;12.97;;;7.20;99.90;;;;;;650370;221;26528;-81
2021/12/29 05:09:47;;;;;;;18.63;13.43;;;7.20;99.90;;;;;;649930;221;26614;-80
2021/12/29 05:12:14;;;;;;;21.43;13.57;;;7.50;99.90;;;;;;650084;221;26834;-80
2021/12/29 05:14:41;;;;;;;19.30;13.80;;;7.30;99.90;;;;;;650067;221;26554;-81
2021/12/29 05:17:08;;;;;;;20.73;13.63;;;7.20;99.90;;;;;;650073;221;26890;-81
2021/12/29 05:19:36;;;;;;;19.50;13.77;;;7.10;99.90;;;;;;650035;221;26642;-81
2021/12/29 05:22:04;;;;;;;20.83;12.93;;;7.00;99.90;;;;;;650084;221;26558;-80
2021/12/29 05:24:32;;;;;;;22.90;15.93;;;7.10;99.90;;;;;;649974;221;26513;-81
2021/12/29 05:27:01;;;;;;;18.33;13.73;;;7.10;99.90;;;;;;649823;221;26542;-81
2021/12/29 05:29:28;;;;;;;19.43;13.00;;;7.00;99.90;;;;;;649518;221;26550;-81
2021/12/29 05:31:55;;;;;;;22.43;13.33;;;7.00;99.90;;;;;;649847;221;26514;-81
2021/12/29 05:34:23;;;;;;;16.20;12.87;;;6.80;99.90;;;;;;649297;221;26531;-80
2021/12/29 05:36:50;;;;;;;18.10;13.00;;;6.70;99.90;;;;;;649684;221;27086;-80
2021/12/29 05:39:18;;;;;;;16.03;12.23;;;6.50;99.90;;;;;;649701;221;26607;-79
2021/12/29 05:41:45;;;;;;;19.03;12.73;;;6.20;99.90;;;;;;649738;221;27300;-81
2021/12/29 05:44:14;;;;;;;18.07;12.67;;;6.20;99.90;;;;;;649729;221;26531;-80
2021/12/29 05:46:43;;;;;;;20.27;12.07;;;6.20;99.90;;;;;;649727;221;26530;-81
2021/12/29 05:49:13;;;;;;;19.97;12.57;;;6.20;99.90;;;;;;649675;221;26640;-80
2021/12/29 05:51:41;;;;;;;19.50;13.27;;;6.20;99.90;;;;;;649736;221;26971;-81
2021/12/29 05:54:10;;;;;;;18.40;13.20;;;6.40;99.90;;;;;;649780;216;26538;-81
2021/12/29 05:56:37;;;;;;;18.63;13.03;;;6.40;99.90;;;;;;649774;216;26538;-81
2021/12/29 05:59:04;;;;;;;19.13;13.13;;;6.70;99.90;;;;;;649814;217;26633;-81
2021/12/29 06:01:31;;;;;;;20.47;12.57;;;6.60;99.90;;;;;;651744;220;26605;-80
2021/12/29 06:03:58;;;;;;;20.63;13.33;;;6.50;99.90;;;;;;651179;216;26547;-80
2021/12/29 06:06:25;;;;;;;18.80;13.27;;;6.40;99.90;;;;;;650897;221;26912;-80
2021/12/29 06:08:52;;;;;;;24.03;13.43;;;6.40;99.90;;;;;;650777;221;26564;-81
2021/12/29 06:11:20;;;;;;;17.07;12.53;;;6.30;99.90;;;;;;650536;221;26588;-81
2021/12/29 06:13:48;;;;;;;21.77;13.70;;;6.20;99.90;;;;;;650656;221;26616;-81
2021/12/29 06:16:15;;;;;;;19.67;12.87;;;6.20;99.90;;;;;;650589;216;26590;-81
2021/12/29 06:18:42;;;;;;;23.97;14.13;;;6.40;99.90;;;;;;650248;221;26881;-80
2021/12/29 06:21:16;;;;;;;20.67;13.57;;;6.40;99.90;;;;;;650241;221;26566;-79
2021/12/29 06:23:36;;;;;;;20.20;12.80;;;6.50;99.90;;;;;;649737;221;26897;-80
2021/12/29 06:26:04;;;;;;;20.77;13.13;;;6.80;99.90;;;;;;650318;221;26553;-80
2021/12/29 06:28:31;;;;;;;21.90;13.83;;;6.90;99.90;;;;;;650342;221;26864;-81
2021/12/29 06:30:58;;;;;;;19.93;13.03;;;7.00;99.90;;;;;;650324;221;26587;-80
2021/12/29 06:33:25;;;;;;;22.77;14.27;;;7.10;99.90;;;;;;650254;221;26906;-81
2021/12/29 06:35:52;;;;;;;21.07;13.57;;;6.90;99.90;;;;;;650172;221;26517;-81
2021/12/29 06:38:20;;;;;;;24.20;14.27;;;6.80;99.90;;;;;;649979;221;27271;-80
2021/12/29 06:40:47;;;;;;;20.87;13.07;;;6.80;99.90;;;;;;649858;221;26555;-80
2021/12/29 06:43:15;;;;;;;24.83;14.63;;;6.70;99.90;;;;;;650005;221;26571;-79
2021/12/29 06:45:43;;;;;;;20.30;14.23;;;6.60;99.90;;;;;;649765;221;26515;-82
2021/12/29 06:48:11;;;;;;;31.03;16.80;;;6.80;99.90;;;;;;649858;221;26534;-80
2021/12/29 06:50:38;;;;;;;27.40;15.53;;;6.70;99.90;;;;;;649839;221;26546;-80
2021/12/29 06:53:05;;;;;;;25.60;15.13;;;6.80;99.90;;;;;;649938;221;26589;-80
2021/12/29 06:55:32;;;;;;;27.17;15.00;;;6.80;99.90;;;;;;649919;221;27473;-81
2021/12/29 06:58:00;;;;;;;26.07;16.00;;;6.80;99.90;;;;;;649884;221;26545;-80
2021/12/29 07:00:27;;;;;;;25.73;14.37;;;6.90;99.90;;;;;;649915;221;26846;-81
2021/12/29 07:02:54;;;;;;;29.97;15.03;;;7.00;99.90;;;;;;649913;221;26498;-81
2021/12/29 07:05:22;;;;;;;28.23;15.57;;;6.90;99.90;;;;;;649877;216;26514;-81
2021/12/29 07:07:50;;;;;;;24.17;15.30;;;6.90;99.90;;;;;;649891;221;26555;-81
2021/12/29 07:10:16;;;;;;;23.53;14.07;;;6.90;99.90;;;;;;649827;221;26550;-81
2021/12/29 07:12:44;;;;;;;30.87;14.70;;;7.00;99.90;;;;;;651599;219;26815;-81
2021/12/29 07:15:11;;;;;;;25.07;14.67;;;7.30;99.90;;;;;;651182;220;26517;-80
2021/12/29 07:17:38;;;;;;;22.43;14.10;;;7.30;99.90;;;;;;650808;221;26794;-80
2021/12/29 07:20:06;;;;;;;26.90;13.37;;;7.10;99.90;;;;;;650793;221;26590;-82
2021/12/29 07:22:33;;;;;;;23.67;14.40;;;7.10;99.90;;;;;;650477;221;26556;-81
2021/12/29 07:25:00;;;;;;;24.60;13.80;;;7.20;99.90;;;;;;650419;221;26811;-80
2021/12/29 07:27:27;;;;;;;22.20;14.10;;;7.30;99.90;;;;;;650456;221;26594;-81
2021/12/29 07:29:54;;;;;;;23.20;14.00;;;7.40;99.90;;;;;;650141;221;26829;-81
2021/12/29 07:32:22;;;;;;;20.53;14.20;;;7.60;99.90;;;;;;650036;221;26589;-81
2021/12/29 07:34:50;;;;;;;23.27;14.37;;;7.80;99.90;;;;;;650079;221;26831;-81
2021/12/29 07:37:18;;;;;;;24.67;14.00;;;7.90;99.90;;;;;;650122;221;26587;-81
2021/12/29 07:39:47;;;;;;;22.67;14.60;;;7.90;99.90;;;;;;650108;221;26549;-80
2021/12/29 07:42:14;;;;;;;23.77;14.80;;;8.10;99.90;;;;;;650132;221;26842;-81
2021/12/29 07:44:43;;;;;;;24.60;14.47;;;8.10;99.90;;;;;;650168;221;26582;-81
2021/12/29 07:47:10;;;;;;;22.63;13.93;;;7.80;99.90;;;;;;649970;221;27007;-81
2021/12/29 07:49:36;;;;;;;29.60;16.27;;;8.10;99.90;;;;;;649726;221;26595;-81
2021/12/29 07:52:04;;;;;;;29.77;15.30;;;8.20;99.90;;;;;;649830;221;26610;-81
2021/12/29 07:54:32;;;;;;;29.50;14.73;;;8.20;99.90;;;;;;649806;221;26558;-81
2021/12/29 07:56:59;;;;;;;25.73;14.53;;;8.20;99.90;;;;;;649759;216;26831;-81
2021/12/29 07:59:26;;;;;;;26.23;14.10;;;8.00;99.90;;;;;;649862;221;26599;-81
2021/12/29 08:01:53;;;;;;;22.07;14.50;;;7.80;99.90;;;;;;649922;221;26855;-81
2021/12/29 08:04:20;;;;;;;26.63;14.57;;;7.60;99.90;;;;;;649901;221;26724;-81
2021/12/29 08:06:48;;;;;;;27.00;14.10;;;7.50;99.90;;;;;;649878;221;26771;-81
2021/12/29 08:09:15;;;;;;;25.07;14.40;;;7.60;99.90;;;;;;649843;221;26622;-81
2021/12/29 08:11:42;;;;;;;23.40;14.77;;;7.60;99.90;;;;;;649945;221;26785;-80
2021/12/29 08:14:10;;;;;;;21.57;14.00;;;7.60;99.90;;;;;;649817;221;26812;-81
2021/12/29 08:16:37;;;;;;;22.50;13.50;;;7.60;99.90;;;;;;649761;221;26521;-81
2021/12/29 08:19:05;;;;;;;25.93;14.93;;;7.40;99.90;;;;;;649765;216;26550;-81
2021/12/29 08:21:33;;;;;;;24.07;14.90;;;7.30;99.90;;;;;;649740;221;26534;-81
2021/12/29 08:24:01;;;;;;;24.47;13.87;;;7.10;99.90;;;;;;651340;216;26583;-81
2021/12/29 08:26:29;;;;;;;21.67;13.77;;;6.90;99.90;;;;;;651275;216;26563;-80
2021/12/29 08:28:58;;;;;;;21.33;14.07;;;6.90;99.90;;;;;;650789;221;26608;-81
2021/12/29 08:31:24;;;;;;;21.17;13.53;;;7.00;99.90;;;;;;650657;221;26590;-81
2021/12/29 08:33:51;;;;;;;26.50;14.07;;;7.00;99.90;;;;;;650354;221;26591;-81
2021/12/29 08:36:19;;;;;;;22.07;13.37;;;6.90;99.90;;;;;;650403;221;26815;-81
2021/12/29 08:38:46;;;;;;;22.37;14.17;;;6.90;99.90;;;;;;650426;221;26571;-83
2021/12/29 08:41:13;;;;;;;27.10;13.93;;;7.20;99.90;;;;;;650243;221;26547;-81
2021/12/29 08:43:40;;;;;;;21.37;13.80;;;7.20;99.90;;;;;;650151;221;26862;-80
2021/12/29 08:46:07;;;;;;;27.87;13.83;;;7.30;99.90;;;;;;650142;221;27160;-81
2021/12/29 08:48:37;;;;;;;25.20;13.90;;;7.30;99.90;;;;;;650177;221;26589;-81
2021/12/29 08:51:02;;;;;;;21.30;13.07;;;7.40;99.90;;;;;;649984;221;26799;-81
2021/12/29 08:53:30;;;;;;;22.87;13.03;;;7.40;99.90;;;;;;650057;221;26608;-81
2021/12/29 08:55:58;;;;;;;19.27;13.23;;;7.40;99.90;;;;;;650054;221;26596;-81
2021/12/29 08:58:25;;;;;;;22.87;14.03;;;7.40;99.90;;;;;;650044;221;26567;-81
2021/12/29 09:00:53;;;;;;;21.17;13.63;;;7.80;99.90;;;;;;649741;221;26558;-81
2021/12/29 09:03:21;;;;;;;23.80;14.43;;;7.80;99.90;;;;;;649736;221;26622;-81
2021/12/29 09:05:48;;;;;;;21.87;13.43;;;7.90;99.90;;;;;;649746;221;27067;-81
2021/12/29 09:08:15;;;;;;;25.20;13.73;;;7.90;99.90;;;;;;649753;221;26596;-81
2021/12/29 09:10:44;;;;;;;20.03;14.53;;;7.80;99.90;;;;;;649682;221;26935;-81
2021/12/29 09:13:10;;;;;;;22.10;14.00;;;8.10;99.90;;;;;;649605;221;26518;-80
2021/12/29 09:15:37;;;;;;;20.10;13.77;;;8.40;99.90;;;;;;649853;216;27194;-82
2021/12/29 09:18:04;;;;;;;23.17;13.53;;;8.60;99.90;;;;;;649753;221;26565;-81
2021/12/29 09:20:33;;;;;;;24.67;13.37;;;8.20;99.90;;;;;;649661;221;26602;-81
2021/12/29 09:23:00;;;;;;;17.73;12.10;;;7.80;99.90;;;;;;649566;217;26523;-81
2021/12/29 09:25:27;;;;;;;20.90;13.97;;;7.80;99.90;;;;;;649683;221;26566;-80
2021/12/29 09:27:55;;;;;;;22.57;13.50;;;7.80;99.90;;;;;;649642;221;26910;-81
2021/12/29 09:30:22;;;;;;;28.60;15.00;;;7.70;99.90;;;;;;649759;221;26542;-82
2021/12/29 09:32:49;;;;;;;25.80;15.67;;;7.80;99.90;;;;;;649602;221;27094;-81
2021/12/29 09:35:16;;;;;;;29.37;15.87;;;8.00;99.90;;;;;;651165;219;26807;-82
2021/12/29 09:37:43;;;;;;;31.47;17.10;;;8.20;99.90;;;;;;651202;220;26776;-82
2021/12/29 09:40:11;;;;;;;29.20;15.80;;;8.10;99.90;;;;;;650854;221;26909;-80
2021/12/29 09:42:39;;;;;;;32.87;15.93;;;8.10;99.90;;;;;;650807;221;26839;-81
2021/12/29 09:45:06;;;;;;;32.93;16.33;;;8.00;99.90;;;;;;650409;216;26573;-85
2021/12/29 09:47:33;;;;;;;26.00;14.93;;;8.00;99.90;;;;;;650409;221;26759;-79
2021/12/29 09:50:00;;;;;;;27.60;14.90;;;8.00;99.90;;;;;;650303;216;27066;-79
2021/12/29 09:52:30;;;;;;;21.43;14.03;;;8.00;99.90;;;;;;650349;216;26864;-79
2021/12/29 09:54:55;;;;;;;19.40;12.47;;;7.90;99.90;;;;;;649849;221;26541;-79
2021/12/29 09:57:22;;;;;;;23.30;13.80;;;8.00;99.90;;;;;;650056;221;27524;-80
2021/12/29 09:59:50;;;;;;;27.63;14.80;;;8.10;99.90;;;;;;650039;221;27034;-85
2021/12/29 10:02:18;;;;;;;25.93;15.50;;;8.10;99.90;;;;;;650168;221;26910;-79
2021/12/29 10:04:45;;;;;;;22.97;14.90;;;8.00;99.90;;;;;;650262;221;26565;-80
2021/12/29 10:07:12;;;;;;;26.37;14.33;;;8.00;99.90;;;;;;648230;221;26574;-81
2021/12/29 10:09:40;;;;;;;21.43;14.30;;;7.90;99.90;;;;;;643982;222;26604;-80
2021/12/29 10:12:09;;;;;;;21.17;14.03;;;7.90;99.90;;;;;;641181;217;26585;-80
2021/12/29 10:14:38;;;;;;;27.47;14.97;;;8.10;99.90;;;;;;638232;222;26587;-79
2021/12/29 10:17:09;;;;;;;23.57;15.20;;;7.90;99.90;;;;;;642253;219;26582;-80
2021/12/29 10:19:37;;;;;;;22.63;14.73;;;7.90;99.90;;;;;;642913;221;26928;-80
2021/12/29 10:22:05;;;;;;;17.57;13.77;;;8.00;99.90;;;;;;643133;221;26595;-80
2021/12/29 10:24:33;;;;;;;26.37;14.83;;;8.30;99.90;;;;;;639658;222;26587;-80
2021/12/29 10:27:00;;;;;;;22.40;15.17;;;8.30;99.90;;;;;;640665;222;26583;-80
2021/12/29 10:29:28;;;;;;;20.80;14.30;;;8.60;99.90;;;;;;639242;219;26624;-80
2021/12/29 10:31:57;;;;;;;21.97;14.63;;;8.60;99.90;;;;;;639873;224;26589;-78
2021/12/29 10:34:24;;;;;;;26.20;15.07;;;8.50;99.90;;;;;;639953;224;26555;-77
2021/12/29 10:36:51;;;;;;;24.10;15.43;;;8.50;99.90;;;;;;641746;222;26960;-76
2021/12/29 10:39:20;;;;;;;21.03;14.93;;;8.70;99.90;;;;;;647533;222;26572;-77
2021/12/29 10:41:52;;;;;;;28.87;16.13;;;8.60;99.90;;;;;;647495;222;26586;-76
2021/12/29 10:44:28;;;;;;;25.60;15.60;;;8.60;99.90;;;;;;646856;222;26757;-76
2021/12/29 10:46:56;;;;;;;27.47;16.63;;;8.50;99.90;;;;;;642355;221;26772;-76
2021/12/29 10:49:22;;;;;;;27.17;16.47;;;8.50;99.90;;;;;;642981;221;26538;-76
2021/12/29 10:51:49;;;;;;;30.00;17.17;;;8.70;99.90;;;;;;642980;221;26793;-78
2021/12/29 10:54:17;;;;;;;26.30;16.80;;;8.60;99.90;;;;;;643710;221;26540;-78
2021/12/29 10:56:44;;;;;;;25.77;16.70;;;8.30;99.90;;;;;;641815;222;26938;-78
2021/12/29 10:59:11;;;;;;;27.77;16.63;;;8.50;99.90;;;;;;646922;221;26581;-77
2021/12/29 11:01:38;;;;;;;28.60;16.57;;;8.40;99.90;;;;;;641697;221;26886;-77
2021/12/29 11:04:07;;;;;;;32.80;18.10;;;8.10;99.90;;;;;;641233;217;26547;-78
2021/12/29 11:06:33;;;;;;;26.77;17.23;;;8.10;99.90;;;;;;642406;221;26561;-77
2021/12/29 11:09:02;;;;;;;30.27;17.43;;;8.10;99.90;;;;;;640650;221;26562;-79
2021/12/29 11:11:32;;;;;;;28.23;18.33;;;8.30;99.90;;;;;;642130;221;26575;-77
2021/12/29 11:14:08;;;;;;;27.87;18.37;;;8.20;99.90;;;;;;641945;222;26778;-78
2021/12/29 11:16:35;;;;;;;31.07;17.77;;;7.70;99.90;;;;;;648644;222;26496;-78
2021/12/29 11:19:02;;;;;;;28.27;17.53;;;7.80;99.90;;;;;;640064;221;26848;-79
2021/12/29 11:21:30;;;;;;;29.60;17.87;;;8.00;99.90;;;;;;643948;221;26544;-78
2021/12/29 11:23:57;;;;;;;30.07;18.03;;;8.00;99.90;;;;;;639935;224;26540;-78
2021/12/29 11:26:27;;;;;;;26.23;17.67;;;8.00;99.90;;;;;;637712;224;26873;-77
2021/12/29 11:28:54;;;;;;;31.43;18.70;;;8.20;99.90;;;;;;644204;222;26566;-78
2021/12/29 11:31:22;;;;;;;28.37;17.80;;;8.20;99.90;;;;;;646817;222;26766;-79
2021/12/29 11:33:49;;;;;;;25.77;18.30;;;8.30;99.90;;;;;;643539;222;26541;-79
2021/12/29 11:36:21;;;;;;;27.37;18.07;;;8.30;99.90;;;;;;637856;224;26995;-80
2021/12/29 11:38:48;;;;;;;28.27;19.07;;;8.40;99.90;;;;;;640718;224;26807;-79
2021/12/29 11:41:19;;;;;;;27.60;16.93;;;8.80;99.90;;;;;;637968;224;26563;-81
2021/12/29 11:43:44;;;;;;;25.37;16.57;;;9.00;99.90;;;;;;640708;221;26541;-78
2021/12/29 11:46:10;;;;;;;26.70;16.63;;;9.00;99.90;;;;;;639072;222;26767;-78
2021/12/29 11:48:38;;;;;;;25.20;16.20;;;9.20;99.90;;;;;;638845;224;26528;-79
2021/12/29 11:51:05;;;;;;;28.17;17.53;;;9.20;99.90;;;;;;640951;224;26543;-78
2021/12/29 11:53:38;;;;;;;29.73;18.17;;;9.20;99.90;;;;;;641870;222;26795;-80
2021/12/29 11:56:08;;;;;;;26.13;16.30;;;8.80;99.90;;;;;;644515;222;26595;-80
2021/12/29 11:58:34;;;;;;;23.33;16.97;;;8.80;99.90;;;;;;639120;223;26599;-79
2021/12/29 12:01:01;;;;;;;24.93;16.97;;;8.80;99.90;;;;;;641446;224;26572;-78
2021/12/29 12:03:28;;;;;;;27.07;17.40;;;8.80;99.90;;;;;;641084;224;26578;-79
2021/12/29 12:05:56;;;;;;;28.83;18.30;;;8.90;99.90;;;;;;639758;224;26585;-80
2021/12/29 12:08:23;;;;;;;29.67;17.03;;;8.90;99.90;;;;;;640909;219;26526;-79
2021/12/29 12:10:50;;;;;;;27.47;16.37;;;8.80;99.90;;;;;;640665;218;26803;-79
2021/12/29 12:13:24;;;;;;;26.73;18.57;;;8.70;99.90;;;;;;644642;222;27159;-78
2021/12/29 12:15:52;;;;;;;28.60;17.20;;;8.60;99.90;;;;;;644757;222;26563;-79
2021/12/29 12:18:19;;;;;;;28.57;17.83;;;8.00;99.90;;;;;;637759;224;26715;-78
2021/12/29 12:20:47;;;;;;;30.63;18.77;;;7.70;99.90;;;;;;639549;221;26564;-79
2021/12/29 12:23:25;;;;;;;31.13;18.30;;;7.70;99.90;;;;;;641223;224;26529;-79
2021/12/29 12:25:53;;;;;;;29.87;18.27;;;7.70;99.90;;;;;;638749;224;26529;-79
2021/12/29 12:28:23;;;;;;;34.13;19.63;;;8.00;99.90;;;;;;639760;222;26523;-79
2021/12/29 12:30:51;;;;;;;31.90;18.67;;;8.30;99.90;;;;;;637780;221;26516;-79
2021/12/29 12:33:17;;;;;;;28.87;19.67;;;8.30;99.90;;;;;;637624;225;26505;-79
2021/12/29 12:35:44;;;;;;;27.37;17.47;;;8.20;99.90;;;;;;638219;224;26539;-79
2021/12/29 12:38:12;;;;;;;33.17;19.47;;;8.20;99.90;;;;;;638963;221;26539;-78
2021/12/29 12:40:41;;;;;;;28.17;19.10;;;8.20;99.90;;;;;;637411;221;26600;-79
2021/12/29 12:43:11;;;;;;;32.40;19.53;;;8.10;99.90;;;;;;637365;225;26580;-79